Airport View

Enter AWOS ICAO identifier for current METAR.

ex. KFNL

KMOX 210040Z AUTO 14010KT 10SM CLR 25/21 A2977 RMK AO2

21 Sep 2019 00:59

Frequency: 109.6

Phone: 320-589-1303

Other Area AWOS: KBBB - KAQP - KVVV - KY63

TAF KAXN 202325Z 2100/2124 15012G19KT P6SM SCT180 FM210500 17013KT P6SM VCSH SCT025 BKN100 FM211100 18012KT 6SM -RA BR SCT012 BKN025 TEMPO 2111/2115 3SM TSRA BR BKN012CB FM211500 18016G25KT P6SM VCSH OVC008 FM211800 19014G24KT P6SM BKN017